createdAt,value
2023-03-06T00:00:19.472Z,10
2023-03-06T00:05:18.100Z,11
2023-03-06T00:10:18.364Z,13
2023-03-06T00:15:18.127Z,13
2023-03-06T00:20:19.434Z,13
2023-03-06T00:25:18.190Z,14
2023-03-06T00:30:18.418Z,14
2023-03-06T00:35:18.269Z,16
2023-03-06T00:40:18.425Z,15
2023-03-06T00:45:18.962Z,14
2023-03-06T00:50:18.311Z,13
2023-03-06T00:55:18.248Z,14
2023-03-06T01:00:17.600Z,15
2023-03-06T01:05:16.301Z,15
2023-03-06T01:10:16.689Z,15
2023-03-06T01:15:16.423Z,14
2023-03-06T01:20:16.362Z,12
2023-03-06T01:25:16.320Z,10
2023-03-06T01:30:16.329Z,10
2023-03-06T01:35:16.313Z,11
2023-03-06T01:40:16.718Z,11
2023-03-06T01:45:16.277Z,11
2023-03-06T01:50:16.394Z,13
2023-03-06T01:55:16.402Z,14
2023-03-06T02:00:16.481Z,14
2023-03-06T02:05:16.337Z,14
2023-03-06T02:10:16.571Z,13
2023-03-06T02:15:16.424Z,15
2023-03-06T02:20:16.778Z,16
2023-03-06T02:25:16.541Z,14
2023-03-06T02:30:16.562Z,12
2023-03-06T02:35:16.561Z,13
2023-03-06T02:40:16.647Z,13
2023-03-06T02:45:16.979Z,12
2023-03-06T02:50:16.703Z,13
2023-03-06T02:55:16.577Z,14
2023-03-06T03:00:16.792Z,16
2023-03-06T03:05:16.524Z,15
2023-03-06T03:10:16.640Z,13
2023-03-06T03:15:16.511Z,12
2023-03-06T03:20:16.903Z,11
2023-03-06T03:25:17.060Z,13
2023-03-06T03:30:16.745Z,11
2023-03-06T03:35:16.641Z,13
2023-03-06T03:40:16.864Z,16
2023-03-06T03:45:16.763Z,14
2023-03-06T03:50:16.727Z,14
2023-03-06T03:55:16.802Z,15
2023-03-06T04:00:16.820Z,15
2023-03-06T04:05:16.762Z,15
2023-03-06T04:10:16.914Z,15
2023-03-06T04:15:16.668Z,14
2023-03-06T04:20:16.852Z,15
2023-03-06T04:25:17.225Z,15
2023-03-06T04:30:17.060Z,15
2023-03-06T04:35:16.801Z,17
2023-03-06T04:40:17.342Z,15
2023-03-06T04:45:16.890Z,16
2023-03-06T04:50:16.879Z,18
2023-03-06T04:55:16.974Z,20
2023-03-06T05:00:18.030Z,20
2023-03-06T05:05:18.004Z,17
2023-03-06T05:10:17.936Z,17
2023-03-06T05:15:17.905Z,19
2023-03-06T05:20:18.013Z,18
2023-03-06T05:25:18.026Z,16
2023-03-06T05:30:18.003Z,16
2023-03-06T05:35:18.573Z,14
2023-03-06T05:40:18.482Z,14
2023-03-06T05:45:18.009Z,15
2023-03-06T05:50:18.092Z,18
2023-03-06T05:55:18.186Z,19
2023-03-06T06:00:18.082Z,18
2023-03-06T06:05:18.686Z,17
2023-03-06T06:10:18.137Z,16
2023-03-06T06:15:18.066Z,18
2023-03-06T06:20:18.118Z,19
2023-03-06T06:25:18.265Z,19
2023-03-06T06:30:18.379Z,19
2023-03-06T06:35:18.187Z,19
2023-03-06T06:40:18.736Z,21
2023-03-06T06:45:18.160Z,20
2023-03-06T06:50:16.912Z,21
2023-03-06T06:55:16.204Z,19
2023-03-06T07:00:16.306Z,19
2023-03-06T07:05:16.441Z,21
2023-03-06T07:10:16.325Z,19
2023-03-06T07:15:16.256Z,19
2023-03-06T07:20:16.619Z,18
2023-03-06T07:25:16.422Z,20
2023-03-06T07:30:16.463Z,18
2023-03-06T07:35:20.365Z,19
2023-03-06T07:40:16.477Z,19
2023-03-06T07:45:17.442Z,18
2023-03-06T07:50:16.422Z,18
2023-03-06T07:55:16.529Z,17
2023-03-06T08:00:16.638Z,17
2023-03-06T08:05:16.715Z,18
2023-03-06T08:10:16.498Z,19
2023-03-06T08:15:16.410Z,21
2023-03-06T08:20:16.894Z,19
2023-03-06T08:25:16.620Z,19
2023-03-06T08:30:16.581Z,17
2023-03-06T08:35:16.604Z,20
2023-03-06T08:40:18.492Z,22
2023-03-06T08:45:16.717Z,18
2023-03-06T08:50:16.995Z,19
2023-03-06T08:55:16.649Z,20
2023-03-06T09:00:16.995Z,20
2023-03-06T09:05:16.581Z,21
2023-03-06T09:10:17.148Z,21
2023-03-06T09:15:16.636Z,22
2023-03-06T09:20:16.897Z,19
2023-03-06T09:25:16.652Z,22
2023-03-06T09:30:16.696Z,19
2023-03-06T09:35:17.349Z,19
2023-03-06T09:40:17.846Z,16
2023-03-06T09:45:16.791Z,14
2023-03-06T09:50:16.882Z,16
2023-03-06T09:55:16.689Z,18
2023-03-06T10:00:16.775Z,21
2023-03-06T10:05:16.778Z,21
2023-03-06T10:10:17.152Z,20
2023-03-06T10:15:16.829Z,17
2023-03-06T10:20:17.177Z,18
2023-03-06T10:25:16.813Z,20
2023-03-06T10:30:16.907Z,20
2023-03-06T10:35:17.146Z,20
2023-03-06T10:40:16.950Z,19
2023-03-06T10:45:17.128Z,17
2023-03-06T10:50:17.166Z,19
2023-03-06T10:55:17.722Z,20
2023-03-06T11:00:19.192Z,20
2023-03-06T11:05:16.995Z,20
2023-03-06T11:10:17.458Z,18
2023-03-06T11:15:17.038Z,15
2023-03-06T11:20:17.311Z,15
2023-03-06T11:25:18.463Z,15
2023-03-06T11:30:17.228Z,17
2023-03-06T11:35:17.055Z,15
2023-03-06T11:40:17.332Z,16
2023-03-06T11:45:17.040Z,19
2023-03-06T11:50:17.360Z,18
2023-03-06T11:55:17.384Z,17
2023-03-06T12:00:17.339Z,16
2023-03-06T12:05:17.385Z,19
2023-03-06T12:10:17.425Z,21
2023-03-06T12:15:17.234Z,22
2023-03-06T12:20:17.262Z,21
2023-03-06T12:25:17.125Z,23
2023-03-06T12:30:17.388Z,23
2023-03-06T12:35:17.285Z,21
2023-03-06T12:40:17.702Z,21
2023-03-06T12:45:17.245Z,16
2023-03-06T12:50:17.462Z,20
2023-03-06T12:55:17.225Z,18
2023-03-06T13:00:17.581Z,20
2023-03-06T13:05:17.349Z,20
2023-03-06T13:10:17.380Z,19
2023-03-06T13:15:17.238Z,19
2023-03-06T13:20:17.865Z,17
2023-03-06T13:25:17.283Z,18
2023-03-06T13:30:17.429Z,17
2023-03-06T13:35:17.620Z,17
2023-03-06T13:40:17.530Z,17
2023-03-06T13:45:17.369Z,18
2023-03-06T13:50:17.872Z,19
2023-03-06T13:55:17.396Z,19
2023-03-06T14:00:17.668Z,17
2023-03-06T14:05:17.440Z,18
2023-03-06T14:10:18.483Z,17
2023-03-06T14:15:17.476Z,19
2023-03-06T14:20:17.626Z,17
2023-03-06T14:25:17.739Z,19
2023-03-06T14:30:17.818Z,19
2023-03-06T14:35:17.905Z,18
2023-03-06T14:40:17.606Z,16
2023-03-06T14:45:17.713Z,18
2023-03-06T14:50:19.257Z,19
2023-03-06T14:55:17.546Z,19
2023-03-06T15:00:17.982Z,19
2023-03-06T15:05:17.700Z,18
2023-03-06T15:10:17.803Z,20
2023-03-06T15:15:17.593Z,19
2023-03-06T15:20:18.326Z,18
2023-03-06T15:25:18.612Z,16
2023-03-06T15:30:18.640Z,19
2023-03-06T15:35:17.798Z,18
2023-03-06T15:40:17.843Z,18
2023-03-06T15:45:17.723Z,17
2023-03-06T15:50:18.173Z,17
2023-03-06T15:55:17.962Z,17
2023-03-06T16:00:26.946Z,19
2023-03-06T16:05:17.962Z,18
2023-03-06T16:10:18.168Z,18
2023-03-06T16:15:17.807Z,15
2023-03-06T16:20:17.899Z,17
2023-03-06T16:25:17.798Z,14
2023-03-06T16:30:17.966Z,18
2023-03-06T16:35:18.120Z,16
2023-03-06T16:40:18.136Z,22
2023-03-06T16:45:17.988Z,23
2023-03-06T16:50:18.133Z,17
2023-03-06T16:55:17.914Z,21
2023-03-06T17:00:17.952Z,19
2023-03-06T17:05:18.318Z,15
2023-03-06T17:10:18.028Z,19
2023-03-06T17:15:17.960Z,25
2023-03-06T17:20:18.486Z,24
2023-03-06T17:25:17.880Z,19
2023-03-06T17:30:18.251Z,19
2023-03-06T17:35:18.879Z,22
2023-03-06T17:40:18.249Z,27
2023-03-06T17:45:18.021Z,24
2023-03-06T17:50:18.281Z,21
2023-03-06T17:55:17.989Z,23
2023-03-06T18:00:18.097Z,25
2023-03-06T18:05:18.377Z,24
2023-03-06T18:10:19.593Z,22
2023-03-06T18:15:18.138Z,23
2023-03-06T18:20:18.433Z,23
2023-03-06T18:25:18.460Z,26
2023-03-06T18:30:18.630Z,25
2023-03-06T18:35:16.273Z,29
2023-03-06T18:40:16.386Z,30
2023-03-06T18:45:16.602Z,24
2023-03-06T18:50:16.394Z,22
2023-03-06T18:55:16.392Z,20
2023-03-06T19:00:16.302Z,20
2023-03-06T19:05:16.413Z,21
2023-03-06T19:10:16.338Z,22
2023-03-06T19:15:16.317Z,21
2023-03-06T19:20:16.920Z,22
2023-03-06T19:25:16.508Z,22
2023-03-06T19:30:16.791Z,20
2023-03-06T19:35:16.702Z,21
2023-03-06T19:40:16.645Z,20
2023-03-06T19:45:16.430Z,22
2023-03-06T19:50:16.731Z,22
2023-03-06T19:55:16.668Z,22
2023-03-06T20:00:16.549Z,25
2023-03-06T20:05:16.510Z,27
2023-03-06T20:10:16.483Z,25
2023-03-06T20:15:16.449Z,26
2023-03-06T20:20:16.705Z,23
2023-03-06T20:25:16.937Z,25
2023-03-06T20:30:16.634Z,22
2023-03-06T20:35:17.564Z,21
2023-03-06T20:40:16.723Z,22
2023-03-06T20:45:16.518Z,22
2023-03-06T20:50:17.186Z,21
2023-03-06T20:55:16.611Z,21
2023-03-06T21:00:16.861Z,22
2023-03-06T21:05:16.667Z,22
2023-03-06T21:10:16.734Z,24
2023-03-06T21:15:16.687Z,22
2023-03-06T21:20:16.857Z,21
2023-03-06T21:25:16.703Z,20
2023-03-06T21:30:17.481Z,21
2023-03-06T21:35:16.777Z,19
2023-03-06T21:40:16.854Z,18
2023-03-06T21:45:16.950Z,16
2023-03-06T21:50:16.950Z,18
2023-03-06T21:55:16.772Z,20
2023-03-06T22:00:17.113Z,22
2023-03-06T22:05:17.258Z,21
2023-03-06T22:10:16.865Z,22
2023-03-06T22:15:16.828Z,24
2023-03-06T22:20:17.140Z,19
2023-03-06T22:25:16.944Z,17
2023-03-06T22:30:16.916Z,16
2023-03-06T22:35:16.883Z,18
2023-03-06T22:40:17.179Z,18
2023-03-06T22:45:16.921Z,20
2023-03-06T22:50:17.003Z,18
2023-03-06T22:55:16.903Z,18
2023-03-06T23:00:16.348Z,18
2023-03-06T23:05:18.309Z,17
2023-03-06T23:10:18.533Z,17
2023-03-06T23:15:17.995Z,15
2023-03-06T23:20:18.234Z,16
2023-03-06T23:25:17.990Z,18
2023-03-06T23:30:18.457Z,20
2023-03-06T23:35:18.234Z,19
2023-03-06T23:40:18.410Z,19
2023-03-06T23:45:19.383Z,16
2023-03-06T23:50:18.595Z,16
2023-03-06T23:55:19.410Z,19
